Time;durP1;ratioP1;P1;durP2;ratioP2;P2;SDS_P1;SDS_P2;PMS_P1;PMS_P2;Temp;Humidity;BMP_temperature;BMP_pressure;BME280_temperature;BME280_humidity;BME280_pressure;Samples;Min_cycle;Max_cycle;Signal;HPM_P1;HPM_P2
2024/02/24 00:01:58;;;;;;;5.07;2.10;;;6.80;99.90;;;;;;7289108;19;20217;-77
2024/02/24 00:04:23;;;;;;;7.63;2.60;;;6.80;99.90;;;;;;7289707;19;20655;-78
2024/02/24 00:06:49;;;;;;;5.03;2.00;;;6.80;99.90;;;;;;7309840;19;20189;-78
2024/02/24 00:09:15;;;;;;;5.30;2.10;;;6.80;99.90;;;;;;7287990;19;20194;-78
2024/02/24 00:11:40;;;;;;;5.17;1.80;;;6.90;99.90;;;;;;7288839;19;20657;-78
2024/02/24 00:14:06;;;;;;;4.73;2.10;;;7.00;99.90;;;;;;7288396;19;20193;-78
2024/02/24 00:16:32;;;;;;;6.90;2.30;;;7.00;99.90;;;;;;7288638;19;20251;-78
2024/02/24 00:18:59;;;;;;;5.17;2.30;;;7.00;99.90;;;;;;7288302;19;20184;-79
2024/02/24 00:21:26;;;;;;;6.07;2.20;;;6.80;99.90;;;;;;7287292;19;20594;-79
2024/02/24 00:23:51;;;;;;;6.60;2.30;;;6.90;99.90;;;;;;7310107;19;20252;-78
2024/02/24 00:26:17;;;;;;;4.33;2.37;;;6.80;99.90;;;;;;7289074;19;20702;-78
2024/02/24 00:28:43;;;;;;;6.03;2.33;;;6.70;99.90;;;;;;7285378;19;20183;-78
2024/02/24 00:31:08;;;;;;;6.50;2.33;;;6.70;99.90;;;;;;7287762;19;20193;-79
2024/02/24 00:33:34;;;;;;;4.20;1.70;;;6.70;99.90;;;;;;7287402;19;20203;-79
2024/02/24 00:36:01;;;;;;;4.33;1.90;;;6.90;99.90;;;;;;7286786;19;20190;-79
2024/02/24 00:38:26;;;;;;;7.43;2.30;;;6.90;99.90;;;;;;7289329;19;20220;-80
2024/02/24 00:40:52;;;;;;;6.40;2.30;;;6.90;99.90;;;;;;7301170;19;20639;-78
2024/02/24 00:43:18;;;;;;;4.80;2.30;;;6.70;99.90;;;;;;7305011;19;20941;-79
2024/02/24 00:45:44;;;;;;;7.00;2.40;;;6.70;99.90;;;;;;7287011;19;20195;-79
2024/02/24 00:48:09;;;;;;;7.30;2.10;;;6.60;99.90;;;;;;7286709;19;20268;-80
2024/02/24 00:50:35;;;;;;;5.30;2.17;;;6.50;99.90;;;;;;7288330;19;20213;-79
2024/02/24 00:53:01;;;;;;;6.23;2.60;;;6.50;99.90;;;;;;7288294;19;20203;-79
2024/02/24 00:55:27;;;;;;;3.73;1.90;;;6.50;99.90;;;;;;7286981;19;20521;-79
2024/02/24 00:57:53;;;;;;;4.30;1.90;;;6.50;99.90;;;;;;7294182;19;20192;-79
2024/02/24 01:00:18;;;;;;;5.43;2.40;;;6.60;99.90;;;;;;7308990;19;20192;-79
2024/02/24 01:02:44;;;;;;;5.07;2.10;;;6.70;99.90;;;;;;7286895;19;20201;-80
2024/02/24 01:05:10;;;;;;;4.97;2.20;;;6.70;99.90;;;;;;7287029;19;20644;-80
2024/02/24 01:07:36;;;;;;;4.80;2.10;;;6.60;99.90;;;;;;7287214;19;20208;-79
2024/02/24 01:10:01;;;;;;;5.87;2.30;;;6.60;99.90;;;;;;7285639;19;20214;-79
2024/02/24 01:12:27;;;;;;;4.40;2.13;;;6.50;99.90;;;;;;7287084;19;20536;-79
2024/02/24 01:14:53;;;;;;;5.53;2.47;;;6.60;99.90;;;;;;7293716;19;20177;-79
2024/02/24 01:17:20;;;;;;;6.27;2.50;;;6.60;99.90;;;;;;7309799;19;20188;-79
2024/02/24 01:19:46;;;;;;;7.40;2.47;;;6.60;99.90;;;;;;7285380;19;20281;-79
2024/02/24 01:22:15;;;;;;;6.50;2.77;;;6.50;99.90;;;;;;7284743;19;20304;-79
2024/02/24 01:24:42;;;;;;;5.77;2.60;;;6.50;99.90;;;;;;7285338;19;20651;-79
2024/02/24 01:27:08;;;;;;;7.03;3.27;;;6.50;99.90;;;;;;7284324;19;20199;-79
2024/02/24 01:29:33;;;;;;;6.23;2.47;;;6.50;99.90;;;;;;7285969;19;20184;-79
2024/02/24 01:32:01;;;;;;;5.77;2.90;;;6.50;99.90;;;;;;7286922;19;20189;-79
2024/02/24 01:34:29;;;;;;;8.17;3.00;;;6.50;99.90;;;;;;7285216;19;20192;-79
2024/02/24 01:36:55;;;;;;;8.43;2.93;;;6.50;99.90;;;;;;7285901;19;20185;-79
2024/02/24 01:39:21;;;;;;;6.93;2.90;;;6.40;99.90;;;;;;7308804;19;20197;-78
2024/02/24 01:41:47;;;;;;;6.03;2.90;;;6.50;99.90;;;;;;7285111;19;20260;-78
2024/02/24 01:44:18;;;;;;;5.97;2.40;;;6.50;99.90;;;;;;7286846;19;20189;-78
2024/02/24 01:46:45;;;;;;;6.23;2.70;;;6.60;99.90;;;;;;7284127;19;20195;-79
2024/02/24 01:49:12;;;;;;;5.63;2.90;;;6.60;99.90;;;;;;7285813;19;20534;-78
2024/02/24 01:51:38;;;;;;;8.80;2.40;;;6.60;99.90;;;;;;7286311;19;20269;-79
2024/02/24 01:54:03;;;;;;;6.17;2.90;;;6.60;99.90;;;;;;7285953;19;20230;-79
2024/02/24 01:56:29;;;;;;;7.77;3.47;;;6.70;99.90;;;;;;7285191;19;20651;-78
2024/02/24 01:58:55;;;;;;;9.30;2.90;;;6.80;99.90;;;;;;7285498;19;20194;-78
2024/02/24 02:01:21;;;;;;;6.87;3.27;;;6.80;99.90;;;;;;7305902;19;20177;-78
2024/02/24 02:03:51;;;;;;;6.37;3.40;;;6.80;99.90;;;;;;7284484;19;20213;-79
2024/02/24 02:06:17;;;;;;;6.77;3.50;;;6.90;99.90;;;;;;7285103;19;20196;-79
2024/02/24 02:08:43;;;;;;;9.67;4.20;;;6.90;99.90;;;;;;7283290;19;20174;-79
2024/02/24 02:11:10;;;;;;;8.50;3.97;;;7.00;99.90;;;;;;7281919;19;20657;-78
2024/02/24 02:13:35;;;;;;;8.73;4.23;;;6.90;99.90;;;;;;7283737;19;20198;-78
2024/02/24 02:16:01;;;;;;;10.37;4.50;;;7.00;99.90;;;;;;7282712;19;20277;-79
2024/02/24 02:18:27;;;;;;;8.67;4.13;;;7.10;99.90;;;;;;7283659;19;20690;-79
2024/02/24 02:20:54;;;;;;;7.93;4.40;;;7.00;99.90;;;;;;7291456;19;20187;-79
2024/02/24 02:23:19;;;;;;;10.53;4.60;;;7.20;99.90;;;;;;7306619;19;20277;-79
2024/02/24 02:25:45;;;;;;;10.43;4.30;;;7.20;99.90;;;;;;7282729;19;20194;-79
2024/02/24 02:28:11;;;;;;;9.67;4.27;;;7.20;99.90;;;;;;7283186;19;20197;-79
2024/02/24 02:30:37;;;;;;;8.63;4.20;;;7.30;99.90;;;;;;7283941;19;20194;-78
2024/02/24 02:33:04;;;;;;;8.83;4.37;;;7.50;99.90;;;;;;7284631;19;20193;-77
2024/02/24 02:35:31;;;;;;;8.83;4.20;;;7.50;99.90;;;;;;7283377;19;20723;-78
2024/02/24 02:37:57;;;;;;;8.80;4.33;;;7.40;99.90;;;;;;7283163;19;20628;-79
2024/02/24 02:40:22;;;;;;;9.63;4.53;;;7.40;99.90;;;;;;7297882;19;20197;-77
2024/02/24 02:42:48;;;;;;;10.00;4.70;;;7.30;99.90;;;;;;7299178;19;20702;-78
2024/02/24 02:45:14;;;;;;;8.37;4.30;;;7.30;99.90;;;;;;7284490;19;20193;-78
2024/02/24 02:47:40;;;;;;;9.70;4.43;;;7.20;99.90;;;;;;7282430;19;20652;-78
2024/02/24 02:50:07;;;;;;;10.10;4.40;;;7.30;99.90;;;;;;7283916;19;20203;-78
2024/02/24 02:52:33;;;;;;;8.20;4.13;;;7.40;99.90;;;;;;7282677;19;20193;-78
2024/02/24 02:54:59;;;;;;;10.27;5.00;;;7.20;99.90;;;;;;7282875;19;20196;-79
2024/02/24 02:57:25;;;;;;;8.43;4.63;;;7.20;99.90;;;;;;7283502;19;20198;-78
2024/02/24 02:59:51;;;;;;;9.27;4.90;;;7.10;99.90;;;;;;7305351;19;20549;-78
2024/02/24 03:02:16;;;;;;;11.50;4.53;;;7.10;99.90;;;;;;7283233;19;20658;-78
2024/02/24 03:04:42;;;;;;;9.60;5.20;;;7.10;99.90;;;;;;7283734;19;20208;-78
2024/02/24 03:07:08;;;;;;;10.90;4.97;;;7.10;99.90;;;;;;7283211;19;20184;-77
2024/02/24 03:09:33;;;;;;;11.93;4.90;;;7.10;99.90;;;;;;7282433;19;20186;-78
2024/02/24 03:11:59;;;;;;;9.23;5.00;;;7.10;99.90;;;;;;7283467;19;20196;-79
2024/02/24 03:14:25;;;;;;;11.67;5.33;;;7.30;99.90;;;;;;7282315;19;20184;-79
2024/02/24 03:16:53;;;;;;;9.00;4.90;;;7.30;99.90;;;;;;7305460;19;20655;-80
2024/02/24 03:19:18;;;;;;;8.83;4.97;;;7.20;99.90;;;;;;7283684;19;20260;-77
2024/02/24 03:21:44;;;;;;;11.27;5.03;;;7.30;99.90;;;;;;7281674;19;20726;-78
2024/02/24 03:24:10;;;;;;;7.90;4.67;;;7.20;99.90;;;;;;7281049;19;20192;-78
2024/02/24 03:26:35;;;;;;;10.43;5.30;;;7.20;99.90;;;;;;7282939;19;20200;-78
2024/02/24 03:29:01;;;;;;;11.07;4.93;;;7.20;99.90;;;;;;7281304;19;20193;-77
2024/02/24 03:31:27;;;;;;;12.30;5.33;;;7.30;99.90;;;;;;7283118;19;20315;-77
2024/02/24 03:33:53;;;;;;;8.20;4.73;;;7.20;99.90;;;;;;7290028;19;20193;-77
2024/02/24 03:36:19;;;;;;;10.67;5.97;;;7.20;99.90;;;;;;7304752;19;20189;-78
2024/02/24 03:38:45;;;;;;;10.93;5.40;;;7.30;99.90;;;;;;7281877;19;20542;-78
2024/02/24 03:41:11;;;;;;;10.60;5.37;;;7.30;99.90;;;;;;7282173;19;20195;-77
2024/02/24 03:43:38;;;;;;;11.03;5.77;;;7.20;99.90;;;;;;7280896;19;20979;-78
2024/02/24 03:46:05;;;;;;;10.53;5.07;;;7.30;99.90;;;;;;7284318;19;20190;-78
2024/02/24 03:48:31;;;;;;;8.83;4.73;;;7.30;99.90;;;;;;7284334;19;20183;-78
2024/02/24 03:51:01;;;;;;;9.37;5.10;;;7.30;99.90;;;;;;7290519;19;20197;-78
2024/02/24 03:53:28;;;;;;;10.77;5.30;;;7.40;99.90;;;;;;7289935;19;20191;-78
2024/02/24 03:55:54;;;;;;;8.83;4.77;;;7.40;99.90;;;;;;7293763;19;20312;-77
2024/02/24 03:58:21;;;;;;;10.03;5.30;;;7.40;99.90;;;;;;7309495;19;20200;-77
2024/02/24 04:00:47;;;;;;;9.47;5.40;;;7.50;99.90;;;;;;7281642;19;20525;-77
2024/02/24 04:03:14;;;;;;;9.07;5.00;;;7.60;99.90;;;;;;7281231;19;20690;-78
2024/02/24 04:05:40;;;;;;;12.07;5.80;;;7.60;99.90;;;;;;7282286;19;20188;-78
2024/02/24 04:08:06;;;;;;;10.47;5.73;;;7.70;99.90;;;;;;7281449;19;20252;-78
2024/02/24 04:10:32;;;;;;;12.67;6.13;;;7.60;99.90;;;;;;7278334;19;20894;-77
2024/02/24 04:12:57;;;;;;;12.37;5.90;;;7.70;99.90;;;;;;7280422;19;20199;-78
2024/02/24 04:15:24;;;;;;;10.10;5.97;;;7.60;99.90;;;;;;7290608;19;20192;-77
2024/02/24 04:17:50;;;;;;;12.17;6.00;;;7.60;99.90;;;;;;7304205;19;20177;-78
2024/02/24 04:20:16;;;;;;;11.23;6.47;;;7.70;99.90;;;;;;7281759;19;20184;-78
2024/02/24 04:22:42;;;;;;;8.77;5.03;;;7.80;99.90;;;;;;7280938;19;20225;-78
2024/02/24 04:25:09;;;;;;;7.70;3.63;;;7.70;99.90;;;;;;7281971;19;20554;-78
2024/02/24 04:27:35;;;;;;;6.57;3.20;;;7.30;99.90;;;;;;7280764;19;20200;-78
2024/02/24 04:30:01;;;;;;;5.57;2.73;;;7.30;99.90;;;;;;7280731;19;20659;-78
2024/02/24 04:32:28;;;;;;;3.50;1.90;;;7.10;99.90;;;;;;7282442;19;20209;-78
2024/02/24 04:34:54;;;;;;;5.57;2.00;;;7.00;99.90;;;;;;7288734;19;20560;-78
2024/02/24 04:37:19;;;;;;;5.17;2.10;;;6.90;99.90;;;;;;7309560;19;20189;-79
2024/02/24 04:39:45;;;;;;;4.80;2.03;;;6.70;99.90;;;;;;7288094;19;20190;-79
2024/02/24 04:42:11;;;;;;;6.23;2.13;;;6.60;99.90;;;;;;7286168;19;20671;-79
2024/02/24 04:44:37;;;;;;;4.60;2.47;;;6.60;99.90;;;;;;7285569;19;20660;-80
2024/02/24 04:47:03;;;;;;;4.80;2.33;;;6.50;99.90;;;;;;7287523;19;20191;-79
2024/02/24 04:49:29;;;;;;;3.77;2.53;;;6.50;99.90;;;;;;7287121;19;20196;-78
2024/02/24 04:51:54;;;;;;;4.50;2.40;;;6.50;99.90;;;;;;7287375;19;20817;-79
2024/02/24 04:54:22;;;;;;;4.17;2.53;;;6.60;99.90;;;;;;7308390;19;20192;-79
2024/02/24 04:56:47;;;;;;;5.87;2.83;;;6.60;99.90;;;;;;7287770;19;20190;-79
2024/02/24 04:59:14;;;;;;;5.63;2.90;;;6.60;99.90;;;;;;7287387;19;20545;-79
2024/02/24 05:01:39;;;;;;;6.30;2.93;;;6.70;99.90;;;;;;7286940;19;20195;-80
2024/02/24 05:04:05;;;;;;;5.83;3.23;;;6.80;99.90;;;;;;7285908;19;20186;-79
2024/02/24 05:06:31;;;;;;;9.70;3.13;;;6.80;99.90;;;;;;7288147;19;20206;-79
2024/02/24 05:08:56;;;;;;;8.73;3.90;;;6.80;99.90;;;;;;7287255;19;20189;-78
2024/02/24 05:11:22;;;;;;;7.37;3.90;;;6.80;99.90;;;;;;7305412;19;20657;-77
2024/02/24 05:13:48;;;;;;;9.07;3.93;;;6.80;99.90;;;;;;7298012;19;20188;-79
2024/02/24 05:16:14;;;;;;;8.30;3.83;;;6.80;99.90;;;;;;7287073;19;20630;-79
2024/02/24 05:18:40;;;;;;;9.30;4.30;;;6.80;99.90;;;;;;7286852;19;20206;-79
2024/02/24 05:21:06;;;;;;;9.27;4.40;;;6.90;99.90;;;;;;7286484;19;20190;-79
2024/02/24 05:23:32;;;;;;;7.90;4.07;;;7.00;99.90;;;;;;7285809;19;20190;-79
2024/02/24 05:25:58;;;;;;;9.33;4.20;;;7.00;99.90;;;;;;7287247;19;20185;-79
2024/02/24 05:28:24;;;;;;;10.20;4.37;;;7.00;99.90;;;;;;7288126;19;20198;-79
2024/02/24 05:30:50;;;;;;;10.00;4.50;;;7.00;99.90;;;;;;7309242;19;20224;-79
2024/02/24 05:33:16;;;;;;;8.20;3.80;;;7.00;99.90;;;;;;7286387;19;20182;-80
2024/02/24 05:35:42;;;;;;;8.87;3.90;;;7.00;99.90;;;;;;7287872;19;22969;-78
2024/02/24 05:38:08;;;;;;;7.97;3.93;;;7.00;99.90;;;;;;7285587;19;20205;-79
2024/02/24 05:40:33;;;;;;;8.30;3.47;;;7.10;99.90;;;;;;7284894;19;20193;-79
2024/02/24 05:42:59;;;;;;;7.77;3.47;;;7.00;99.90;;;;;;7284557;19;20772;-79
2024/02/24 05:45:25;;;;;;;9.93;3.63;;;6.80;99.90;;;;;;7284088;19;20193;-78
2024/02/24 05:47:51;;;;;;;8.93;3.47;;;6.70;99.90;;;;;;7306849;19;20533;-79
2024/02/24 05:50:16;;;;;;;7.93;3.30;;;6.70;99.90;;;;;;7285774;19;20193;-79
2024/02/24 05:52:42;;;;;;;5.87;2.60;;;6.80;99.90;;;;;;7286209;19;20241;-79
2024/02/24 05:55:08;;;;;;;6.63;2.83;;;6.80;99.90;;;;;;7285829;19;20195;-78
2024/02/24 05:57:34;;;;;;;6.97;2.63;;;6.70;99.90;;;;;;7284320;19;20188;-78
2024/02/24 06:00:00;;;;;;;8.13;3.20;;;6.70;99.90;;;;;;7284763;19;20283;-79
2024/02/24 06:02:26;;;;;;;8.47;2.87;;;6.70;99.90;;;;;;7284345;19;20646;-79
2024/02/24 06:04:52;;;;;;;7.17;2.70;;;6.80;99.90;;;;;;7307553;19;20196;-80
2024/02/24 06:07:18;;;;;;;4.97;2.43;;;6.80;99.90;;;;;;7285700;19;20195;-79
2024/02/24 06:09:43;;;;;;;7.77;2.60;;;6.80;99.90;;;;;;7284048;19;20209;-79
2024/02/24 06:12:09;;;;;;;5.67;2.30;;;6.90;99.90;;;;;;7283461;19;20607;-80
2024/02/24 06:14:35;;;;;;;4.50;2.40;;;6.80;99.90;;;;;;7284079;19;20190;-79
2024/02/24 06:17:01;;;;;;;4.97;2.13;;;6.70;99.90;;;;;;7284401;19;20232;-79
2024/02/24 06:19:27;;;;;;;8.17;2.60;;;6.70;99.90;;;;;;7286059;19;20255;-79
2024/02/24 06:21:52;;;;;;;8.60;2.57;;;6.90;99.90;;;;;;7304123;19;20248;-78
2024/02/24 06:24:19;;;;;;;5.20;2.37;;;7.00;99.90;;;;;;7293982;19;20204;-78
2024/02/24 06:26:45;;;;;;;8.73;2.50;;;6.90;99.90;;;;;;7283611;19;20199;-79
2024/02/24 06:29:11;;;;;;;5.43;2.20;;;6.90;99.90;;;;;;7284677;19;20197;-79
2024/02/24 06:31:37;;;;;;;5.83;2.00;;;6.90;99.90;;;;;;7284959;19;20197;-79
2024/02/24 06:34:03;;;;;;;3.90;1.93;;;6.90;99.90;;;;;;7282871;19;20197;-78
2024/02/24 06:36:29;;;;;;;6.90;2.50;;;7.00;99.90;;;;;;7284654;19;20584;-78
2024/02/24 06:38:56;;;;;;;5.10;2.03;;;7.00;99.90;;;;;;7282520;19;20208;-77
2024/02/24 06:41:23;;;;;;;7.83;2.20;;;6.90;99.90;;;;;;7305709;19;20269;-78
2024/02/24 06:43:51;;;;;;;6.53;2.13;;;6.90;99.90;;;;;;7283892;19;20219;-78
2024/02/24 06:46:17;;;;;;;6.33;1.83;;;7.00;99.90;;;;;;7284397;19;20205;-78
2024/02/24 06:48:42;;;;;;;4.60;2.20;;;6.90;99.90;;;;;;7283175;19;20695;-78
2024/02/24 06:51:08;;;;;;;6.33;2.00;;;6.90;99.90;;;;;;7284139;19;20194;-78
2024/02/24 06:53:34;;;;;;;4.80;1.97;;;6.90;99.90;;;;;;7284717;19;20662;-79
2024/02/24 06:56:09;;;;;;;4.30;1.77;;;6.90;99.90;;;;;;7282048;19;20667;-78
2024/02/24 06:58:35;;;;;;;6.87;1.90;;;6.90;99.90;;;;;;7284980;19;20268;-79
2024/02/24 07:01:02;;;;;;;6.40;1.97;;;6.90;99.90;;;;;;7282865;19;20254;-78
2024/02/24 07:03:30;;;;;;;5.73;1.70;;;6.90;99.90;;;;;;7283190;19;20193;-79
2024/02/24 07:05:55;;;;;;;6.83;1.70;;;6.90;99.90;;;;;;7284072;19;20678;-80
2024/02/24 07:08:21;;;;;;;5.70;1.80;;;7.00;99.90;;;;;;7306184;19;20193;-79
2024/02/24 07:10:47;;;;;;;5.43;1.73;;;6.90;99.90;;;;;;7284208;19;20654;-79
2024/02/24 07:13:12;;;;;;;5.80;2.07;;;6.90;99.90;;;;;;7283674;19;20206;-79
2024/02/24 07:15:38;;;;;;;4.40;1.40;;;7.00;99.90;;;;;;7282815;19;20189;-78
2024/02/24 07:18:04;;;;;;;5.40;1.50;;;7.00;99.90;;;;;;7283389;19;20989;-82
2024/02/24 07:20:30;;;;;;;7.90;1.50;;;6.90;99.90;;;;;;7282945;19;20601;-78
2024/02/24 07:22:55;;;;;;;4.03;1.30;;;6.80;99.90;;;;;;7281735;19;20200;-77
2024/02/24 07:25:21;;;;;;;4.73;1.40;;;6.80;99.90;;;;;;7305191;19;20542;-80
2024/02/24 07:27:47;;;;;;;4.50;1.37;;;6.60;99.90;;;;;;7282288;19;20203;-79
2024/02/24 07:30:13;;;;;;;4.83;1.63;;;6.60;99.90;;;;;;7280583;19;20205;-80
2024/02/24 07:32:38;;;;;;;7.70;1.50;;;6.70;99.90;;;;;;7280485;19;20200;-80
2024/02/24 07:35:05;;;;;;;6.17;1.40;;;6.70;99.90;;;;;;7279784;19;20203;-80
2024/02/24 07:37:31;;;;;;;4.50;1.30;;;6.70;99.90;;;;;;7277879;19;20197;-79
2024/02/24 07:39:57;;;;;;;4.23;1.33;;;6.80;99.90;;;;;;7280378;19;20226;-78
2024/02/24 07:42:24;;;;;;;3.00;1.23;;;6.90;99.90;;;;;;7299713;19;20207;-78
2024/02/24 07:44:50;;;;;;;5.33;1.30;;;7.00;99.90;;;;;;7303152;19;20186;-79
2024/02/24 07:47:17;;;;;;;5.50;1.37;;;6.90;99.90;;;;;;7280550;19;20232;-80
2024/02/24 07:49:43;;;;;;;4.67;1.37;;;6.90;99.90;;;;;;7281277;19;20292;-79
2024/02/24 07:52:09;;;;;;;4.63;1.33;;;7.00;99.90;;;;;;7281437;19;20214;-78
2024/02/24 07:54:34;;;;;;;6.73;1.50;;;7.00;99.90;;;;;;7282448;19;20192;-80
2024/02/24 07:57:00;;;;;;;5.40;1.83;;;7.00;99.90;;;;;;7282425;19;20719;-79
2024/02/24 07:59:26;;;;;;;5.53;1.30;;;7.00;99.90;;;;;;7281878;19;20189;-79
2024/02/24 08:01:51;;;;;;;5.57;1.30;;;7.00;99.90;;;;;;7302626;19;20196;-81
2024/02/24 08:04:17;;;;;;;5.17;1.27;;;7.10;99.90;;;;;;7282081;19;20570;-80
2024/02/24 08:06:43;;;;;;;6.73;1.20;;;7.10;99.90;;;;;;7282493;19;20202;-80
2024/02/24 08:09:09;;;;;;;3.63;1.13;;;7.20;99.90;;;;;;7288796;19;20252;-81
2024/02/24 08:11:39;;;;;;;4.63;1.47;;;7.40;99.90;;;;;;7289359;19;20194;-80
2024/02/24 08:14:08;;;;;;;4.87;1.40;;;7.50;99.90;;;;;;7287959;19;20633;-79
2024/02/24 08:16:35;;;;;;;6.80;1.60;;;7.70;99.90;;;;;;7287976;19;20193;-79
2024/02/24 08:19:01;;;;;;;6.97;1.63;;;7.60;99.90;;;;;;7288702;19;20195;-78
2024/02/24 08:21:29;;;;;;;5.93;1.53;;;7.60;99.90;;;;;;7287667;19;20217;-78
2024/02/24 08:23:55;;;;;;;6.83;1.70;;;7.60;99.90;;;;;;7288971;19;20238;-79
2024/02/24 08:26:20;;;;;;;6.73;1.70;;;7.70;99.90;;;;;;7310818;19;20192;-78
2024/02/24 08:28:46;;;;;;;5.67;1.70;;;7.90;99.90;;;;;;7286902;19;20197;-79
2024/02/24 08:31:12;;;;;;;11.57;2.07;;;7.80;99.90;;;;;;7288401;19;20256;-79
2024/02/24 08:33:41;;;;;;;7.87;1.70;;;7.80;99.90;;;;;;7287197;19;20248;-80
2024/02/24 08:36:14;;;;;;;4.77;1.53;;;7.80;99.90;;;;;;7287449;19;20192;-79
2024/02/24 08:38:40;;;;;;;5.83;1.50;;;7.80;99.90;;;;;;7287331;19;20648;-79
2024/02/24 08:41:06;;;;;;;5.60;1.90;;;7.70;99.90;;;;;;7284673;19;20208;-80
2024/02/24 08:43:31;;;;;;;5.50;1.63;;;7.80;99.90;;;;;;7287009;19;20205;-80
2024/02/24 08:45:57;;;;;;;9.97;1.50;;;7.90;99.90;;;;;;7286232;19;20570;-78
2024/02/24 08:48:25;;;;;;;8.00;1.80;;;7.90;99.90;;;;;;7304024;19;20185;-78
2024/02/24 08:50:51;;;;;;;9.27;1.90;;;7.90;99.90;;;;;;7310257;19;20269;-80
2024/02/24 08:53:16;;;;;;;5.23;1.40;;;7.80;99.90;;;;;;7288214;19;20620;-80
2024/02/24 08:55:42;;;;;;;6.57;1.63;;;7.80;99.90;;;;;;7285095;19;20217;-79
2024/02/24 08:58:08;;;;;;;6.60;1.60;;;7.80;99.90;;;;;;7286670;19;20194;-79
2024/02/24 09:00:33;;;;;;;6.97;1.57;;;7.90;99.90;;;;;;7286968;19;20189;-79
2024/02/24 09:02:59;;;;;;;5.37;1.40;;;7.90;99.90;;;;;;7286146;19;20670;-80
2024/02/24 09:05:25;;;;;;;4.80;1.57;;;7.90;99.90;;;;;;7288599;19;20188;-79
2024/02/24 09:07:51;;;;;;;5.83;1.27;;;8.10;99.90;;;;;;7307986;19;20188;-80
2024/02/24 09:10:16;;;;;;;7.50;1.63;;;8.20;99.90;;;;;;7285425;19;20253;-80
2024/02/24 09:12:42;;;;;;;8.80;1.50;;;8.20;99.90;;;;;;7287294;19;20216;-81
2024/02/24 09:15:08;;;;;;;8.23;1.80;;;8.20;99.90;;;;;;7286076;19;20191;-79
2024/02/24 09:17:34;;;;;;;5.40;1.60;;;8.20;99.90;;;;;;7286862;19;20248;-79
2024/02/24 09:20:00;;;;;;;10.13;1.60;;;8.20;99.90;;;;;;7286004;19;20193;-78
2024/02/24 09:22:25;;;;;;;8.07;1.63;;;8.20;99.90;;;;;;7286472;19;20197;-78
2024/02/24 09:24:51;;;;;;;8.80;1.60;;;8.10;99.90;;;;;;7308209;19;20198;-78
2024/02/24 09:27:17;;;;;;;7.07;1.50;;;8.10;99.90;;;;;;7285188;19;20185;-80
2024/02/24 09:29:43;;;;;;;5.17;1.20;;;8.10;99.90;;;;;;7285922;19;20198;-79
2024/02/24 09:32:08;;;;;;;3.40;1.10;;;8.10;99.90;;;;;;7287130;19;20186;-80
2024/02/24 09:34:34;;;;;;;5.87;1.20;;;8.20;99.90;;;;;;7282573;19;20196;-78
2024/02/24 09:37:05;;;;;;;5.37;1.50;;;7.90;99.90;;;;;;7284385;19;20193;-79
2024/02/24 09:39:31;;;;;;;6.33;1.63;;;7.90;99.90;;;;;;7284733;19;20193;-78
2024/02/24 09:42:00;;;;;;;8.03;1.43;;;7.90;99.90;;;;;;7284331;19;20188;-78
2024/02/24 09:44:32;;;;;;;5.50;1.60;;;8.00;99.90;;;;;;7284625;19;21190;-78
2024/02/24 09:46:57;;;;;;;4.47;1.50;;;8.20;99.90;;;;;;7285844;19;20246;-79
2024/02/24 09:49:27;;;;;;;6.83;1.47;;;8.20;99.90;;;;;;7301055;19;20193;-79
2024/02/24 09:51:53;;;;;;;9.30;2.27;;;8.30;99.90;;;;;;7307277;19;20568;-80
2024/02/24 09:54:18;;;;;;;8.60;1.90;;;8.30;99.90;;;;;;7286173;19;20276;-80
2024/02/24 09:56:46;;;;;;;6.43;2.00;;;8.40;99.90;;;;;;7284953;19;20652;-81
2024/02/24 09:59:14;;;;;;;10.47;2.77;;;8.20;99.90;;;;;;7284090;19;20188;-79
2024/02/24 10:01:39;;;;;;;5.90;1.90;;;7.90;99.90;;;;;;7283468;19;20185;-80
2024/02/24 10:04:06;;;;;;;8.17;2.33;;;7.90;99.90;;;;;;7284711;19;20656;-79
2024/02/24 10:06:39;;;;;;;5.03;2.00;;;8.10;99.90;;;;;;7285389;19;20184;-79
2024/02/24 10:09:05;;;;;;;7.37;1.60;;;8.00;99.90;;;;;;7283775;19;20189;-78
2024/02/24 10:11:34;;;;;;;5.87;1.40;;;8.10;99.90;;;;;;7283897;19;20216;-79
2024/02/24 10:13:59;;;;;;;6.23;1.60;;;7.80;99.90;;;;;;7283829;19;20195;-79
2024/02/24 10:16:25;;;;;;;7.10;1.50;;;7.60;99.90;;;;;;7285349;19;20552;-79
2024/02/24 10:18:51;;;;;;;8.87;1.50;;;7.60;99.90;;;;;;7306136;19;20212;-79
2024/02/24 10:21:17;;;;;;;6.47;1.80;;;7.70;99.90;;;;;;7285007;19;20212;-80
2024/02/24 10:23:42;;;;;;;5.47;1.77;;;7.60;99.90;;;;;;7283709;19;24881;-80
2024/02/24 10:26:08;;;;;;;6.40;2.23;;;7.60;99.90;;;;;;7284765;19;20217;-80
2024/02/24 10:28:35;;;;;;;5.90;1.90;;;7.80;99.90;;;;;;7283801;19;20201;-80
2024/02/24 10:31:01;;;;;;;5.13;1.73;;;8.00;99.90;;;;;;7283074;19;20694;-79
2024/02/24 10:33:29;;;;;;;4.93;1.27;;;7.90;99.90;;;;;;7283751;19;20189;-78
2024/02/24 10:35:56;;;;;;;5.40;1.73;;;7.60;99.90;;;;;;7284867;19;20210;-79
2024/02/24 10:38:24;;;;;;;5.67;1.40;;;7.70;99.90;;;;;;7304984;19;20688;-79
2024/02/24 10:40:52;;;;;;;8.20;1.60;;;7.80;99.90;;;;;;7281276;19;20679;-80
2024/02/24 10:43:20;;;;;;;5.97;1.60;;;7.90;99.90;;;;;;7285240;19;20253;-80
2024/02/24 10:45:46;;;;;;;5.57;1.67;;;7.80;99.90;;;;;;7282924;19;20536;-80
2024/02/24 10:48:12;;;;;;;8.03;2.00;;;8.00;99.90;;;;;;7283259;19;20196;-80
2024/02/24 10:50:39;;;;;;;8.07;1.60;;;8.10;99.90;;;;;;7284790;19;20189;-79
2024/02/24 10:53:06;;;;;;;8.43;1.73;;;8.10;99.90;;;;;;7284399;19;20256;-80
2024/02/24 10:55:35;;;;;;;3.83;1.60;;;8.10;99.90;;;;;;7284603;19;20198;-80
2024/02/24 10:58:01;;;;;;;5.70;1.80;;;8.00;99.90;;;;;;7283871;19;20254;-80
2024/02/24 11:00:32;;;;;;;5.27;1.70;;;8.10;99.90;;;;;;7282676;19;20194;-78
2024/02/24 11:03:01;;;;;;;8.07;1.70;;;8.00;99.90;;;;;;7283974;19;20714;-79
2024/02/24 11:05:30;;;;;;;8.47;1.70;;;7.80;99.90;;;;;;7284219;19;20273;-79
2024/02/24 11:07:56;;;;;;;6.77;2.00;;;7.50;99.90;;;;;;7282437;19;20188;-78
2024/02/24 11:10:22;;;;;;;6.83;1.93;;;7.20;99.90;;;;;;7305083;19;20597;-80
2024/02/24 11:12:51;;;;;;;6.63;1.83;;;7.30;99.90;;;;;;7282881;19;20181;-80
2024/02/24 11:15:18;;;;;;;5.43;1.83;;;7.10;99.90;;;;;;7284262;19;20217;-79
2024/02/24 11:17:44;;;;;;;6.23;2.30;;;7.10;99.90;;;;;;7282980;19;20220;-80
2024/02/24 11:20:10;;;;;;;7.60;2.23;;;7.20;99.90;;;;;;7283130;19;20194;-79
2024/02/24 11:22:36;;;;;;;7.03;2.47;;;7.40;99.90;;;;;;7283755;19;20246;-79
2024/02/24 11:25:03;;;;;;;6.57;1.90;;;7.60;99.90;;;;;;7283170;19;20193;-78
2024/02/24 11:27:30;;;;;;;7.40;2.40;;;7.80;99.90;;;;;;7388949;19;20173;-79
2024/02/24 11:30:34;;;;;;;6.50;1.70;;;8.00;99.90;;;;;;7395875;19;20130;-79
2024/02/24 11:33:31;;;;;;;5.50;1.87;;;8.10;99.90;;;;;;7394928;19;20525;-78
2024/02/24 11:36:00;;;;;;;6.87;1.80;;;8.40;99.90;;;;;;7281324;19;20193;-79
2024/02/24 11:38:26;;;;;;;6.60;2.00;;;8.50;99.90;;;;;;7282062;19;20213;-78
2024/02/24 11:40:53;;;;;;;6.20;2.30;;;8.60;99.90;;;;;;7302277;19;20191;-79
2024/02/24 11:43:19;;;;;;;8.13;2.40;;;8.50;99.90;;;;;;7289897;19;20197;-79
2024/02/24 11:45:53;;;;;;;6.70;2.33;;;8.70;99.90;;;;;;7286913;19;20178;-79
2024/02/24 11:48:19;;;;;;;7.13;2.20;;;8.90;99.90;;;;;;7288921;19;20196;-79
2024/02/24 11:50:45;;;;;;;9.03;2.33;;;9.00;99.90;;;;;;7287157;19;20179;-79
2024/02/24 11:53:14;;;;;;;7.03;2.37;;;9.30;99.90;;;;;;7287523;19;20217;-80
2024/02/24 11:55:43;;;;;;;7.87;2.10;;;9.50;99.90;;;;;;7287416;19;20194;-79
2024/02/24 11:58:10;;;;;;;9.83;2.17;;;9.50;99.90;;;;;;7283106;19;20195;-78
2024/02/24 12:00:39;;;;;;;5.67;2.03;;;10.10;99.90;;;;;;7287669;19;20265;-78
2024/02/24 12:03:11;;;;;;;6.70;2.40;;;10.50;99.90;;;;;;7289113;19;20212;-79
2024/02/24 12:05:37;;;;;;;7.53;1.70;;;11.20;99.90;;;;;;7288166;19;20666;-79
2024/02/24 12:08:06;;;;;;;7.13;1.80;;;11.20;99.90;;;;;;7283215;19;20188;-79
2024/02/24 12:10:39;;;;;;;8.50;1.60;;;11.00;99.90;;;;;;7286921;19;20181;-78
2024/02/24 12:13:10;;;;;;;5.40;1.60;;;11.00;99.90;;;;;;7286511;19;20212;-78
2024/02/24 12:15:39;;;;;;;9.43;1.70;;;10.60;99.90;;;;;;7287008;19;20193;-78
2024/02/24 12:18:06;;;;;;;7.10;2.07;;;10.40;99.90;;;;;;7287563;19;20188;-78
2024/02/24 12:20:40;;;;;;;8.87;1.83;;;10.50;99.90;;;;;;7286649;19;20194;-79
2024/02/24 12:23:07;;;;;;;6.83;1.73;;;10.20;99.90;;;;;;7287331;19;20188;-78
2024/02/24 12:25:34;;;;;;;7.23;1.80;;;10.10;99.90;;;;;;7288238;19;20530;-78
2024/02/24 12:28:03;;;;;;;5.40;1.60;;;10.10;99.90;;;;;;7287297;19;20188;-78
2024/02/24 12:30:35;;;;;;;5.43;2.10;;;10.20;99.90;;;;;;7287464;19;20651;-77
2024/02/24 12:33:05;;;;;;;5.20;1.80;;;10.00;99.90;;;;;;7287430;19;20203;-77
2024/02/24 12:35:31;;;;;;;4.17;1.27;;;10.20;99.90;;;;;;7283885;19;20189;-77
2024/02/24 12:37:57;;;;;;;4.17;1.53;;;10.20;99.90;;;;;;7286467;19;20192;-78
2024/02/24 12:40:28;;;;;;;4.67;1.43;;;10.30;99.90;;;;;;7306088;19;20183;-79
2024/02/24 12:42:54;;;;;;;4.90;1.50;;;10.10;99.90;;;;;;7281364;19;20187;-76
2024/02/24 12:45:20;;;;;;;4.17;1.40;;;10.10;99.90;;;;;;7306367;19;20212;-77
2024/02/24 12:47:49;;;;;;;5.47;1.40;;;10.10;99.90;;;;;;7287085;19;20197;-78
2024/02/24 12:50:22;;;;;;;5.70;1.63;;;10.10;99.90;;;;;;7286698;19;20231;-78
2024/02/24 12:52:49;;;;;;;5.73;2.23;;;10.00;99.90;;;;;;7286633;19;20179;-78